sensor_id;sensor_type;location;lat;lon;timestamp;P1;durP1;ratioP1;P2;durP2;ratioP2
9720;SDS011;4899;42.644;23.366;2023-07-13T00:00:10;4.30;;;3.83;;
9720;SDS011;4899;42.644;23.366;2023-07-13T00:02:35;4.13;;;3.83;;
9720;SDS011;4899;42.644;23.366;2023-07-13T00:05:01;5.77;;;3.87;;
9720;SDS011;4899;42.644;23.366;2023-07-13T00:07:26;4.57;;;3.80;;
9720;SDS011;4899;42.644;23.366;2023-07-13T00:09:51;4.27;;;3.97;;
9720;SDS011;4899;42.644;23.366;2023-07-13T00:12:24;6.10;;;4.40;;
9720;SDS011;4899;42.644;23.366;2023-07-13T00:14:49;8.33;;;3.87;;
9720;SDS011;4899;42.644;23.366;2023-07-13T00:17:15;4.47;;;3.80;;
9720;SDS011;4899;42.644;23.366;2023-07-13T00:19:40;4.23;;;3.83;;
9720;SDS011;4899;42.644;23.366;2023-07-13T00:22:06;4.53;;;4.10;;
9720;SDS011;4899;42.644;23.366;2023-07-13T00:24:31;4.67;;;4.13;;
9720;SDS011;4899;42.644;23.366;2023-07-13T00:26:56;5.73;;;4.23;;
9720;SDS011;4899;42.644;23.366;2023-07-13T00:29:22;6.87;;;4.57;;
9720;SDS011;4899;42.644;23.366;2023-07-13T00:31:47;6.70;;;4.70;;
9720;SDS011;4899;42.644;23.366;2023-07-13T00:34:12;5.07;;;4.53;;
9720;SDS011;4899;42.644;23.366;2023-07-13T00:36:38;7.53;;;4.57;;
9720;SDS011;4899;42.644;23.366;2023-07-13T00:39:03;4.80;;;4.40;;
9720;SDS011;4899;42.644;23.366;2023-07-13T00:41:29;5.03;;;4.43;;
9720;SDS011;4899;42.644;23.366;2023-07-13T00:43:54;7.87;;;4.80;;
9720;SDS011;4899;42.644;23.366;2023-07-13T00:48:48;5.33;;;4.20;;
9720;SDS011;4899;42.644;23.366;2023-07-13T00:51:14;4.30;;;4.00;;
9720;SDS011;4899;42.644;23.366;2023-07-13T00:53:40;5.97;;;4.00;;
9720;SDS011;4899;42.644;23.366;2023-07-13T00:56:06;5.57;;;4.20;;
9720;SDS011;4899;42.644;23.366;2023-07-13T00:58:32;6.07;;;4.30;;
9720;SDS011;4899;42.644;23.366;2023-07-13T01:00:58;5.30;;;4.43;;
9720;SDS011;4899;42.644;23.366;2023-07-13T01:03:23;4.60;;;4.20;;
9720;SDS011;4899;42.644;23.366;2023-07-13T01:05:49;6.53;;;4.40;;
9720;SDS011;4899;42.644;23.366;2023-07-13T01:08:15;4.83;;;4.20;;
9720;SDS011;4899;42.644;23.366;2023-07-13T01:10:40;4.40;;;4.00;;
9720;SDS011;4899;42.644;23.366;2023-07-13T01:13:06;4.97;;;4.10;;
9720;SDS011;4899;42.644;23.366;2023-07-13T01:15:43;4.90;;;4.30;;
9720;SDS011;4899;42.644;23.366;2023-07-13T01:18:27;4.37;;;3.97;;
9720;SDS011;4899;42.644;23.366;2023-07-13T01:23:18;4.30;;;3.90;;
9720;SDS011;4899;42.644;23.366;2023-07-13T01:25:44;6.23;;;3.83;;
9720;SDS011;4899;42.644;23.366;2023-07-13T01:28:09;6.87;;;4.40;;
9720;SDS011;4899;42.644;23.366;2023-07-13T01:30:35;6.07;;;4.77;;
9720;SDS011;4899;42.644;23.366;2023-07-13T01:33:03;4.83;;;4.33;;
9720;SDS011;4899;42.644;23.366;2023-07-13T01:35:29;5.70;;;4.27;;
9720;SDS011;4899;42.644;23.366;2023-07-13T01:37:54;5.30;;;4.80;;
9720;SDS011;4899;42.644;23.366;2023-07-13T01:40:20;6.20;;;4.47;;
9720;SDS011;4899;42.644;23.366;2023-07-13T01:42:45;6.47;;;5.07;;
9720;SDS011;4899;42.644;23.366;2023-07-13T01:45:11;4.67;;;4.27;;
9720;SDS011;4899;42.644;23.366;2023-07-13T01:47:36;5.47;;;4.57;;
9720;SDS011;4899;42.644;23.366;2023-07-13T01:50:01;5.50;;;5.00;;
9720;SDS011;4899;42.644;23.366;2023-07-13T01:52:27;5.23;;;4.83;;
9720;SDS011;4899;42.644;23.366;2023-07-13T01:54:52;5.07;;;4.57;;
9720;SDS011;4899;42.644;23.366;2023-07-13T01:57:17;5.00;;;4.50;;
9720;SDS011;4899;42.644;23.366;2023-07-13T01:59:43;4.97;;;4.47;;
9720;SDS011;4899;42.644;23.366;2023-07-13T02:02:08;5.37;;;4.97;;
9720;SDS011;4899;42.644;23.366;2023-07-13T02:04:33;5.47;;;4.70;;
9720;SDS011;4899;42.644;23.366;2023-07-13T02:06:59;4.93;;;4.50;;
9720;SDS011;4899;42.644;23.366;2023-07-13T02:09:24;5.23;;;4.73;;
9720;SDS011;4899;42.644;23.366;2023-07-13T02:11:49;5.37;;;4.87;;
9720;SDS011;4899;42.644;23.366;2023-07-13T02:14:15;5.40;;;4.67;;
9720;SDS011;4899;42.644;23.366;2023-07-13T02:16:40;5.50;;;4.30;;
9720;SDS011;4899;42.644;23.366;2023-07-13T02:19:05;5.17;;;4.77;;
9720;SDS011;4899;42.644;23.366;2023-07-13T02:21:31;6.73;;;5.63;;
9720;SDS011;4899;42.644;23.366;2023-07-13T02:23:56;5.10;;;4.60;;
9720;SDS011;4899;42.644;23.366;2023-07-13T02:26:22;6.33;;;4.77;;
9720;SDS011;4899;42.644;23.366;2023-07-13T02:28:48;5.20;;;4.77;;
9720;SDS011;4899;42.644;23.366;2023-07-13T02:31:14;5.87;;;5.10;;
9720;SDS011;4899;42.644;23.366;2023-07-13T02:33:40;5.33;;;4.90;;
9720;SDS011;4899;42.644;23.366;2023-07-13T02:36:06;5.50;;;5.00;;
9720;SDS011;4899;42.644;23.366;2023-07-13T02:38:31;4.50;;;4.10;;
9720;SDS011;4899;42.644;23.366;2023-07-13T02:40:58;4.87;;;4.47;;
9720;SDS011;4899;42.644;23.366;2023-07-13T02:43:24;5.70;;;5.20;;
9720;SDS011;4899;42.644;23.366;2023-07-13T02:45:49;5.73;;;4.77;;
9720;SDS011;4899;42.644;23.366;2023-07-13T02:48:14;5.50;;;5.00;;
9720;SDS011;4899;42.644;23.366;2023-07-13T02:50:40;6.60;;;5.97;;
9720;SDS011;4899;42.644;23.366;2023-07-13T02:53:05;5.70;;;4.67;;
9720;SDS011;4899;42.644;23.366;2023-07-13T02:55:30;6.63;;;5.63;;
9720;SDS011;4899;42.644;23.366;2023-07-13T02:57:55;5.53;;;4.97;;
9720;SDS011;4899;42.644;23.366;2023-07-13T03:00:22;6.00;;;5.40;;
9720;SDS011;4899;42.644;23.366;2023-07-13T03:02:47;5.93;;;5.33;;
9720;SDS011;4899;42.644;23.366;2023-07-13T03:05:12;5.37;;;4.87;;
9720;SDS011;4899;42.644;23.366;2023-07-13T03:07:38;7.70;;;5.57;;
9720;SDS011;4899;42.644;23.366;2023-07-13T03:10:04;5.87;;;5.10;;
9720;SDS011;4899;42.644;23.366;2023-07-13T03:12:29;5.37;;;4.83;;
9720;SDS011;4899;42.644;23.366;2023-07-13T03:14:54;5.33;;;4.83;;
9720;SDS011;4899;42.644;23.366;2023-07-13T03:17:20;5.73;;;5.20;;
9720;SDS011;4899;42.644;23.366;2023-07-13T03:19:45;6.20;;;5.50;;
9720;SDS011;4899;42.644;23.366;2023-07-13T03:22:14;6.10;;;5.60;;
9720;SDS011;4899;42.644;23.366;2023-07-13T03:24:39;5.43;;;5.03;;
9720;SDS011;4899;42.644;23.366;2023-07-13T03:27:05;6.23;;;5.40;;
9720;SDS011;4899;42.644;23.366;2023-07-13T03:29:30;8.33;;;5.30;;
9720;SDS011;4899;42.644;23.366;2023-07-13T03:31:55;6.07;;;5.50;;
9720;SDS011;4899;42.644;23.366;2023-07-13T03:34:21;5.60;;;5.10;;
9720;SDS011;4899;42.644;23.366;2023-07-13T03:36:46;8.47;;;6.07;;
9720;SDS011;4899;42.644;23.366;2023-07-13T03:39:12;9.30;;;6.10;;
9720;SDS011;4899;42.644;23.366;2023-07-13T03:41:38;19.33;;;17.57;;
9720;SDS011;4899;42.644;23.366;2023-07-13T03:44:03;6.20;;;5.47;;
9720;SDS011;4899;42.644;23.366;2023-07-13T03:46:28;8.10;;;5.80;;
9720;SDS011;4899;42.644;23.366;2023-07-13T03:48:54;7.47;;;6.10;;
9720;SDS011;4899;42.644;23.366;2023-07-13T03:51:19;8.27;;;5.47;;
9720;SDS011;4899;42.644;23.366;2023-07-13T03:53:46;7.07;;;5.30;;
9720;SDS011;4899;42.644;23.366;2023-07-13T03:56:11;6.50;;;5.90;;
9720;SDS011;4899;42.644;23.366;2023-07-13T03:58:38;7.77;;;5.87;;
9720;SDS011;4899;42.644;23.366;2023-07-13T04:01:04;7.03;;;5.87;;
9720;SDS011;4899;42.644;23.366;2023-07-13T04:03:30;6.13;;;5.53;;
9720;SDS011;4899;42.644;23.366;2023-07-13T04:05:57;9.33;;;6.40;;
9720;SDS011;4899;42.644;23.366;2023-07-13T04:08:25;8.03;;;5.90;;
9720;SDS011;4899;42.644;23.366;2023-07-13T04:10:50;8.40;;;6.50;;
9720;SDS011;4899;42.644;23.366;2023-07-13T04:13:15;12.50;;;6.77;;
9720;SDS011;4899;42.644;23.366;2023-07-13T04:15:41;7.87;;;5.63;;
9720;SDS011;4899;42.644;23.366;2023-07-13T04:18:06;6.43;;;5.77;;
9720;SDS011;4899;42.644;23.366;2023-07-13T04:20:31;6.40;;;5.80;;
9720;SDS011;4899;42.644;23.366;2023-07-13T04:22:57;6.83;;;6.07;;
9720;SDS011;4899;42.644;23.366;2023-07-13T04:25:23;10.37;;;6.30;;
9720;SDS011;4899;42.644;23.366;2023-07-13T04:27:49;8.37;;;6.83;;
9720;SDS011;4899;42.644;23.366;2023-07-13T04:30:14;6.83;;;6.13;;
9720;SDS011;4899;42.644;23.366;2023-07-13T04:32:39;6.57;;;5.97;;
9720;SDS011;4899;42.644;23.366;2023-07-13T04:35:05;6.77;;;6.07;;
9720;SDS011;4899;42.644;23.366;2023-07-13T04:37:30;9.07;;;6.33;;
9720;SDS011;4899;42.644;23.366;2023-07-13T04:39:55;7.97;;;6.40;;
9720;SDS011;4899;42.644;23.366;2023-07-13T04:42:21;8.13;;;7.33;;
9720;SDS011;4899;42.644;23.366;2023-07-13T04:44:50;9.03;;;6.67;;
9720;SDS011;4899;42.644;23.366;2023-07-13T04:47:16;7.27;;;6.67;;
9720;SDS011;4899;42.644;23.366;2023-07-13T04:49:42;7.83;;;6.97;;
9720;SDS011;4899;42.644;23.366;2023-07-13T04:52:07;11.60;;;8.30;;
9720;SDS011;4899;42.644;23.366;2023-07-13T04:54:33;10.33;;;7.83;;
9720;SDS011;4899;42.644;23.366;2023-07-13T04:56:58;10.23;;;8.40;;
9720;SDS011;4899;42.644;23.366;2023-07-13T04:59:23;11.67;;;8.40;;
9720;SDS011;4899;42.644;23.366;2023-07-13T05:01:49;9.37;;;8.23;;
9720;SDS011;4899;42.644;23.366;2023-07-13T05:04:14;8.90;;;8.10;;
9720;SDS011;4899;42.644;23.366;2023-07-13T05:06:39;9.50;;;8.00;;
9720;SDS011;4899;42.644;23.366;2023-07-13T05:09:05;10.73;;;8.97;;
9720;SDS011;4899;42.644;23.366;2023-07-13T05:11:31;9.70;;;8.80;;
9720;SDS011;4899;42.644;23.366;2023-07-13T05:13:56;9.70;;;8.70;;
9720;SDS011;4899;42.644;23.366;2023-07-13T05:16:21;9.80;;;8.03;;
9720;SDS011;4899;42.644;23.366;2023-07-13T05:18:47;7.73;;;7.00;;
9720;SDS011;4899;42.644;23.366;2023-07-13T05:21:12;9.50;;;6.97;;
9720;SDS011;4899;42.644;23.366;2023-07-13T05:23:37;9.00;;;7.20;;
9720;SDS011;4899;42.644;23.366;2023-07-13T05:26:03;7.83;;;7.13;;
9720;SDS011;4899;42.644;23.366;2023-07-13T05:28:29;7.53;;;6.87;;
9720;SDS011;4899;42.644;23.366;2023-07-13T05:30:55;7.60;;;6.90;;
9720;SDS011;4899;42.644;23.366;2023-07-13T05:33:20;6.50;;;5.90;;
9720;SDS011;4899;42.644;23.366;2023-07-13T05:35:46;9.60;;;6.63;;
9720;SDS011;4899;42.644;23.366;2023-07-13T05:38:11;7.70;;;6.67;;
9720;SDS011;4899;42.644;23.366;2023-07-13T05:40:37;7.10;;;6.40;;
9720;SDS011;4899;42.644;23.366;2023-07-13T05:43:02;7.70;;;7.00;;
9720;SDS011;4899;42.644;23.366;2023-07-13T05:45:27;8.67;;;6.43;;
9720;SDS011;4899;42.644;23.366;2023-07-13T05:47:53;8.20;;;7.20;;
9720;SDS011;4899;42.644;23.366;2023-07-13T05:50:18;9.30;;;6.93;;
9720;SDS011;4899;42.644;23.366;2023-07-13T05:52:43;7.30;;;6.67;;
9720;SDS011;4899;42.644;23.366;2023-07-13T05:55:09;7.27;;;6.70;;
9720;SDS011;4899;42.644;23.366;2023-07-13T05:57:34;8.03;;;7.23;;
9720;SDS011;4899;42.644;23.366;2023-07-13T05:59:59;7.57;;;6.43;;
9720;SDS011;4899;42.644;23.366;2023-07-13T06:02:25;7.40;;;6.70;;
9720;SDS011;4899;42.644;23.366;2023-07-13T06:04:51;7.93;;;7.23;;
9720;SDS011;4899;42.644;23.366;2023-07-13T06:07:16;6.90;;;6.40;;
9720;SDS011;4899;42.644;23.366;2023-07-13T06:09:42;9.30;;;8.40;;
9720;SDS011;4899;42.644;23.366;2023-07-13T06:12:07;7.80;;;7.10;;
9720;SDS011;4899;42.644;23.366;2023-07-13T06:14:32;10.07;;;7.83;;
9720;SDS011;4899;42.644;23.366;2023-07-13T06:16:58;9.57;;;7.17;;
9720;SDS011;4899;42.644;23.366;2023-07-13T06:19:23;8.53;;;7.63;;
9720;SDS011;4899;42.644;23.366;2023-07-13T06:21:48;10.80;;;8.13;;
9720;SDS011;4899;42.644;23.366;2023-07-13T06:24:13;7.10;;;6.57;;
9720;SDS011;4899;42.644;23.366;2023-07-13T06:26:39;8.43;;;7.50;;
9720;SDS011;4899;42.644;23.366;2023-07-13T06:29:04;8.13;;;7.00;;
9720;SDS011;4899;42.644;23.366;2023-07-13T06:31:30;8.33;;;7.13;;
9720;SDS011;4899;42.644;23.366;2023-07-13T06:33:55;8.30;;;7.60;;
9720;SDS011;4899;42.644;23.366;2023-07-13T06:36:20;8.97;;;7.73;;
9720;SDS011;4899;42.644;23.366;2023-07-13T06:38:45;8.30;;;7.33;;
9720;SDS011;4899;42.644;23.366;2023-07-13T06:41:11;9.90;;;7.23;;
9720;SDS011;4899;42.644;23.366;2023-07-13T06:43:36;8.57;;;7.47;;
9720;SDS011;4899;42.644;23.366;2023-07-13T06:46:01;8.63;;;7.23;;
9720;SDS011;4899;42.644;23.366;2023-07-13T06:48:27;9.93;;;8.13;;
9720;SDS011;4899;42.644;23.366;2023-07-13T06:50:52;10.20;;;7.30;;
9720;SDS011;4899;42.644;23.366;2023-07-13T06:53:18;8.07;;;7.37;;
9720;SDS011;4899;42.644;23.366;2023-07-13T06:55:44;8.60;;;7.70;;
9720;SDS011;4899;42.644;23.366;2023-07-13T06:58:10;8.17;;;7.47;;
9720;SDS011;4899;42.644;23.366;2023-07-13T07:00:36;10.00;;;7.07;;
9720;SDS011;4899;42.644;23.366;2023-07-13T07:03:01;11.43;;;7.60;;
9720;SDS011;4899;42.644;23.366;2023-07-13T07:05:26;9.70;;;7.40;;
9720;SDS011;4899;42.644;23.366;2023-07-13T07:07:53;8.47;;;7.60;;
9720;SDS011;4899;42.644;23.366;2023-07-13T07:10:19;9.67;;;7.17;;
9720;SDS011;4899;42.644;23.366;2023-07-13T07:12:44;8.23;;;7.53;;
9720;SDS011;4899;42.644;23.366;2023-07-13T07:15:10;8.20;;;7.43;;
9720;SDS011;4899;42.644;23.366;2023-07-13T07:17:35;8.27;;;7.47;;
9720;SDS011;4899;42.644;23.366;2023-07-13T07:20:01;8.97;;;7.23;;
9720;SDS011;4899;42.644;23.366;2023-07-13T07:22:26;9.47;;;7.50;;
9720;SDS011;4899;42.644;23.366;2023-07-13T07:24:52;14.37;;;7.13;;
9720;SDS011;4899;42.644;23.366;2023-07-13T07:27:18;10.77;;;7.60;;
9720;SDS011;4899;42.644;23.366;2023-07-13T07:29:43;8.50;;;7.70;;
9720;SDS011;4899;42.644;23.366;2023-07-13T07:32:08;13.07;;;8.00;;
9720;SDS011;4899;42.644;23.366;2023-07-13T07:34:34;9.90;;;7.87;;
9720;SDS011;4899;42.644;23.366;2023-07-13T07:36:59;9.90;;;7.10;;
9720;SDS011;4899;42.644;23.366;2023-07-13T07:39:25;12.83;;;7.30;;
9720;SDS011;4899;42.644;23.366;2023-07-13T07:41:50;11.45;;;7.45;;
9720;SDS011;4899;42.644;23.366;2023-07-13T07:44:16;11.10;;;8.20;;
9720;SDS011;4899;42.644;23.366;2023-07-13T07:46:41;9.27;;;7.80;;
9720;SDS011;4899;42.644;23.366;2023-07-13T07:49:06;10.30;;;8.05;;
9720;SDS011;4899;42.644;23.366;2023-07-13T07:51:31;10.63;;;7.72;;
9720;SDS011;4899;42.644;23.366;2023-07-13T07:53:57;10.88;;;8.43;;
9720;SDS011;4899;42.644;23.366;2023-07-13T07:56:22;8.85;;;7.60;;
9720;SDS011;4899;42.644;23.366;2023-07-13T07:58:47;13.23;;;7.47;;
9720;SDS011;4899;42.644;23.366;2023-07-13T08:01:13;8.68;;;6.85;;
9720;SDS011;4899;42.644;23.366;2023-07-13T08:03:38;8.10;;;7.28;;
9720;SDS011;4899;42.644;23.366;2023-07-13T08:06:03;10.10;;;7.53;;
9720;SDS011;4899;42.644;23.366;2023-07-13T08:08:29;10.57;;;7.20;;
9720;SDS011;4899;42.644;23.366;2023-07-13T08:10:54;8.25;;;7.45;;
9720;SDS011;4899;42.644;23.366;2023-07-13T08:13:19;8.85;;;7.65;;
9720;SDS011;4899;42.644;23.366;2023-07-13T08:15:45;8.43;;;7.32;;
9720;SDS011;4899;42.644;23.366;2023-07-13T08:18:11;9.10;;;7.40;;
9720;SDS011;4899;42.644;23.366;2023-07-13T08:20:37;8.52;;;7.72;;
9720;SDS011;4899;42.644;23.366;2023-07-13T08:23:02;7.90;;;7.20;;
9720;SDS011;4899;42.644;23.366;2023-07-13T08:25:27;8.80;;;7.90;;
9720;SDS011;4899;42.644;23.366;2023-07-13T08:27:52;10.35;;;7.72;;
9720;SDS011;4899;42.644;23.366;2023-07-13T08:30:18;10.88;;;7.75;;
9720;SDS011;4899;42.644;23.366;2023-07-13T08:32:43;7.70;;;6.93;;
9720;SDS011;4899;42.644;23.366;2023-07-13T08:35:08;11.32;;;7.45;;
9720;SDS011;4899;42.644;23.366;2023-07-13T08:37:33;8.50;;;7.63;;
9720;SDS011;4899;42.644;23.366;2023-07-13T08:39:59;12.85;;;7.43;;
9720;SDS011;4899;42.644;23.366;2023-07-13T08:47:36;10.13;;;7.22;;
9720;SDS011;4899;42.644;23.366;2023-07-13T08:50:02;8.48;;;7.63;;
9720;SDS011;4899;42.644;23.366;2023-07-13T08:52:40;8.98;;;6.88;;
9720;SDS011;4899;42.644;23.366;2023-07-13T08:55:12;8.35;;;6.60;;
9720;SDS011;4899;42.644;23.366;2023-07-13T08:57:38;8.23;;;7.40;;
9720;SDS011;4899;42.644;23.366;2023-07-13T09:00:07;7.90;;;7.07;;
9720;SDS011;4899;42.644;23.366;2023-07-13T09:02:37;9.48;;;7.90;;
9720;SDS011;4899;42.644;23.366;2023-07-13T09:05:08;8.23;;;7.43;;
9720;SDS011;4899;42.644;23.366;2023-07-13T09:10:23;9.48;;;6.78;;
9720;SDS011;4899;42.644;23.366;2023-07-13T09:13:10;12.43;;;8.15;;
9720;SDS011;4899;42.644;23.366;2023-07-13T09:15:40;14.80;;;7.43;;
9720;SDS011;4899;42.644;23.366;2023-07-13T09:18:08;8.13;;;7.30;;
9720;SDS011;4899;42.644;23.366;2023-07-13T09:20:37;8.70;;;7.78;;
9720;SDS011;4899;42.644;23.366;2023-07-13T09:23:04;11.18;;;7.82;;
9720;SDS011;4899;42.644;23.366;2023-07-13T09:25:32;9.18;;;7.70;;
9720;SDS011;4899;42.644;23.366;2023-07-13T09:31:07;10.18;;;7.38;;
9720;SDS011;4899;42.644;23.366;2023-07-13T09:33:35;10.52;;;8.13;;
9720;SDS011;4899;42.644;23.366;2023-07-13T09:36:00;9.93;;;8.02;;
9720;SDS011;4899;42.644;23.366;2023-07-13T09:38:27;11.18;;;7.70;;
9720;SDS011;4899;42.644;23.366;2023-07-13T09:43:38;8.23;;;7.47;;
9720;SDS011;4899;42.644;23.366;2023-07-13T09:46:03;8.63;;;7.78;;
9720;SDS011;4899;42.644;23.366;2023-07-13T09:48:34;9.20;;;7.10;;
9720;SDS011;4899;42.644;23.366;2023-07-13T09:51:14;11.02;;;7.90;;
9720;SDS011;4899;42.644;23.366;2023-07-13T09:53:41;8.57;;;7.60;;
9720;SDS011;4899;42.644;23.366;2023-07-13T09:56:11;8.68;;;7.75;;
9720;SDS011;4899;42.644;23.366;2023-07-13T09:58:43;11.20;;;7.93;;
9720;SDS011;4899;42.644;23.366;2023-07-13T10:01:08;10.55;;;7.80;;
9720;SDS011;4899;42.644;23.366;2023-07-13T10:03:34;8.18;;;7.38;;
9720;SDS011;4899;42.644;23.366;2023-07-13T10:06:12;9.15;;;7.78;;
9720;SDS011;4899;42.644;23.366;2023-07-13T10:08:37;10.27;;;7.70;;
9720;SDS011;4899;42.644;23.366;2023-07-13T10:11:14;10.07;;;7.50;;
9720;SDS011;4899;42.644;23.366;2023-07-13T10:13:42;10.25;;;7.38;;
9720;SDS011;4899;42.644;23.366;2023-07-13T10:16:09;11.25;;;7.70;;
9720;SDS011;4899;42.644;23.366;2023-07-13T10:18:38;8.02;;;7.22;;
9720;SDS011;4899;42.644;23.366;2023-07-13T10:21:13;9.30;;;7.32;;
9720;SDS011;4899;42.644;23.366;2023-07-13T10:23:38;8.88;;;7.90;;
9720;SDS011;4899;42.644;23.366;2023-07-13T10:26:04;8.55;;;7.47;;
9720;SDS011;4899;42.644;23.366;2023-07-13T10:28:37;7.97;;;7.25;;
9720;SDS011;4899;42.644;23.366;2023-07-13T10:31:03;10.98;;;7.10;;
9720;SDS011;4899;42.644;23.366;2023-07-13T10:33:30;7.93;;;7.15;;
9720;SDS011;4899;42.644;23.366;2023-07-13T10:38:39;10.10;;;7.60;;
9720;SDS011;4899;42.644;23.366;2023-07-13T10:41:07;8.35;;;7.47;;
9720;SDS011;4899;42.644;23.366;2023-07-13T10:43:45;7.65;;;7.03;;
9720;SDS011;4899;42.644;23.366;2023-07-13T10:46:12;10.95;;;7.20;;
9720;SDS011;4899;42.644;23.366;2023-07-13T10:48:40;9.23;;;7.00;;
9720;SDS011;4899;42.644;23.366;2023-07-13T10:51:06;10.10;;;7.78;;
9720;SDS011;4899;42.644;23.366;2023-07-13T10:58:28;10.55;;;7.28;;
9720;SDS011;4899;42.644;23.366;2023-07-13T11:00:57;7.30;;;6.60;;
9720;SDS011;4899;42.644;23.366;2023-07-13T11:03:25;9.43;;;6.93;;
9720;SDS011;4899;42.644;23.366;2023-07-13T11:06:03;8.27;;;7.38;;
9720;SDS011;4899;42.644;23.366;2023-07-13T11:10:55;6.85;;;5.00;;
9720;SDS011;4899;42.644;23.366;2023-07-13T11:16:14;6.15;;;4.88;;
9720;SDS011;4899;42.644;23.366;2023-07-13T11:21:26;7.40;;;6.70;;
9720;SDS011;4899;42.644;23.366;2023-07-13T11:24:04;8.73;;;7.00;;
9720;SDS011;4899;42.644;23.366;2023-07-13T11:29:08;9.88;;;7.00;;
9720;SDS011;4899;42.644;23.366;2023-07-13T11:31:34;11.95;;;7.45;;
9720;SDS011;4899;42.644;23.366;2023-07-13T11:33:59;9.43;;;6.75;;
9720;SDS011;4899;42.644;23.366;2023-07-13T11:36:29;11.38;;;6.40;;
9720;SDS011;4899;42.644;23.366;2023-07-13T11:39:11;8.73;;;6.63;;
9720;SDS011;4899;42.644;23.366;2023-07-13T11:41:45;6.82;;;6.13;;
9720;SDS011;4899;42.644;23.366;2023-07-13T11:44:18;6.70;;;6.00;;
9720;SDS011;4899;42.644;23.366;2023-07-13T11:46:51;10.60;;;6.15;;
9720;SDS011;4899;42.644;23.366;2023-07-13T11:49:20;11.38;;;5.90;;
9720;SDS011;4899;42.644;23.366;2023-07-13T11:51:46;9.82;;;6.38;;
9720;SDS011;4899;42.644;23.366;2023-07-13T11:54:28;7.85;;;5.88;;
9720;SDS011;4899;42.644;23.366;2023-07-13T11:57:38;12.50;;;6.30;;
9720;SDS011;4899;42.644;23.366;2023-07-13T11:59:42;8.48;;;5.50;;
9720;SDS011;4899;42.644;23.366;2023-07-13T12:02:13;6.65;;;5.68;;
9720;SDS011;4899;42.644;23.366;2023-07-13T12:04:41;11.27;;;6.05;;
9720;SDS011;4899;42.644;23.366;2023-07-13T12:07:11;7.68;;;6.40;;
9720;SDS011;4899;42.644;23.366;2023-07-13T12:09:39;6.32;;;5.63;;
9720;SDS011;4899;42.644;23.366;2023-07-13T12:12:08;6.33;;;5.60;;
9720;SDS011;4899;42.644;23.366;2023-07-13T12:14:35;6.97;;;5.28;;
9720;SDS011;4899;42.644;23.366;2023-07-13T12:17:00;7.65;;;4.18;;
9720;SDS011;4899;42.644;23.366;2023-07-13T12:19:26;7.80;;;4.57;;
9720;SDS011;4899;42.644;23.366;2023-07-13T12:21:53;5.22;;;4.72;;
9720;SDS011;4899;42.644;23.366;2023-07-13T12:24:19;8.18;;;5.13;;
9720;SDS011;4899;42.644;23.366;2023-07-13T12:26:50;8.30;;;4.90;;
9720;SDS011;4899;42.644;23.366;2023-07-13T12:29:16;9.20;;;4.25;;
9720;SDS011;4899;42.644;23.366;2023-07-13T12:31:43;8.35;;;4.63;;
9720;SDS011;4899;42.644;23.366;2023-07-13T12:34:16;7.15;;;4.30;;
9720;SDS011;4899;42.644;23.366;2023-07-13T12:39:22;5.55;;;5.05;;
9720;SDS011;4899;42.644;23.366;2023-07-13T12:41:49;8.63;;;6.07;;
9720;SDS011;4899;42.644;23.366;2023-07-13T12:44:16;8.07;;;5.82;;
9720;SDS011;4899;42.644;23.366;2023-07-13T12:46:51;8.43;;;5.88;;
9720;SDS011;4899;42.644;23.366;2023-07-13T12:49:18;7.35;;;5.03;;
9720;SDS011;4899;42.644;23.366;2023-07-13T12:51:49;7.32;;;5.70;;
9720;SDS011;4899;42.644;23.366;2023-07-13T12:54:18;14.93;;;5.90;;
9720;SDS011;4899;42.644;23.366;2023-07-13T12:56:44;8.82;;;6.10;;
9720;SDS011;4899;42.644;23.366;2023-07-13T12:59:15;8.38;;;5.68;;
9720;SDS011;4899;42.644;23.366;2023-07-13T13:01:41;6.78;;;5.63;;
9720;SDS011;4899;42.644;23.366;2023-07-13T13:04:08;8.75;;;5.53;;
9720;SDS011;4899;42.644;23.366;2023-07-13T13:06:36;12.32;;;6.60;;
9720;SDS011;4899;42.644;23.366;2023-07-13T13:09:03;9.85;;;5.38;;
9720;SDS011;4899;42.644;23.366;2023-07-13T13:11:29;7.40;;;5.30;;
9720;SDS011;4899;42.644;23.366;2023-07-13T13:13:55;9.07;;;5.65;;
9720;SDS011;4899;42.644;23.366;2023-07-13T13:18:49;8.13;;;5.82;;
9720;SDS011;4899;42.644;23.366;2023-07-13T13:21:16;7.28;;;5.45;;
9720;SDS011;4899;42.644;23.366;2023-07-13T13:23:41;6.07;;;5.47;;
9720;SDS011;4899;42.644;23.366;2023-07-13T13:26:10;9.32;;;5.20;;
9720;SDS011;4899;42.644;23.366;2023-07-13T13:28:35;7.57;;;5.90;;
9720;SDS011;4899;42.644;23.366;2023-07-13T13:31:01;8.17;;;5.37;;
9720;SDS011;4899;42.644;23.366;2023-07-13T13:33:26;6.50;;;5.43;;
9720;SDS011;4899;42.644;23.366;2023-07-13T13:35:51;8.53;;;5.67;;
9720;SDS011;4899;42.644;23.366;2023-07-13T13:38:17;7.63;;;5.65;;
9720;SDS011;4899;42.644;23.366;2023-07-13T13:40:43;8.38;;;4.88;;
9720;SDS011;4899;42.644;23.366;2023-07-13T13:43:18;10.75;;;5.68;;
9720;SDS011;4899;42.644;23.366;2023-07-13T13:45:44;6.25;;;5.60;;
9720;SDS011;4899;42.644;23.366;2023-07-13T13:48:19;7.97;;;5.50;;
9720;SDS011;4899;42.644;23.366;2023-07-13T13:50:45;5.68;;;5.18;;
9720;SDS011;4899;42.644;23.366;2023-07-13T13:53:12;7.10;;;5.57;;
9720;SDS011;4899;42.644;23.366;2023-07-13T13:55:38;9.07;;;5.75;;
9720;SDS011;4899;42.644;23.366;2023-07-13T13:58:04;10.85;;;5.55;;
9720;SDS011;4899;42.644;23.366;2023-07-13T14:00:29;8.18;;;5.53;;
9720;SDS011;4899;42.644;23.366;2023-07-13T14:02:55;10.52;;;5.82;;
9720;SDS011;4899;42.644;23.366;2023-07-13T14:05:23;8.63;;;5.55;;
9720;SDS011;4899;42.644;23.366;2023-07-13T14:07:48;10.80;;;5.15;;
9720;SDS011;4899;42.644;23.366;2023-07-13T14:10:15;6.63;;;5.20;;
9720;SDS011;4899;42.644;23.366;2023-07-13T14:12:45;11.00;;;5.30;;
9720;SDS011;4899;42.644;23.366;2023-07-13T14:15:13;11.20;;;5.40;;
9720;SDS011;4899;42.644;23.366;2023-07-13T14:17:41;5.15;;;4.65;;
9720;SDS011;4899;42.644;23.366;2023-07-13T14:20:09;7.25;;;5.43;;
9720;SDS011;4899;42.644;23.366;2023-07-13T14:22:36;9.40;;;5.40;;
9720;SDS011;4899;42.644;23.366;2023-07-13T14:25:01;9.03;;;5.60;;
9720;SDS011;4899;42.644;23.366;2023-07-13T14:27:26;9.43;;;5.32;;
9720;SDS011;4899;42.644;23.366;2023-07-13T14:29:51;9.15;;;4.93;;
9720;SDS011;4899;42.644;23.366;2023-07-13T14:32:17;7.13;;;5.10;;
9720;SDS011;4899;42.644;23.366;2023-07-13T14:34:42;10.35;;;5.22;;
9720;SDS011;4899;42.644;23.366;2023-07-13T14:37:11;9.23;;;5.25;;
9720;SDS011;4899;42.644;23.366;2023-07-13T14:39:38;8.38;;;5.60;;
9720;SDS011;4899;42.644;23.366;2023-07-13T14:42:03;10.00;;;5.32;;
9720;SDS011;4899;42.644;23.366;2023-07-13T14:44:29;7.93;;;4.80;;
9720;SDS011;4899;42.644;23.366;2023-07-13T14:46:56;10.48;;;5.55;;
9720;SDS011;4899;42.644;23.366;2023-07-13T14:49:35;9.40;;;4.93;;
9720;SDS011;4899;42.644;23.366;2023-07-13T14:52:02;7.97;;;4.95;;
9720;SDS011;4899;42.644;23.366;2023-07-13T14:54:28;8.00;;;4.75;;
9720;SDS011;4899;42.644;23.366;2023-07-13T14:56:54;6.82;;;5.00;;
9720;SDS011;4899;42.644;23.366;2023-07-13T14:59:19;8.43;;;5.30;;
9720;SDS011;4899;42.644;23.366;2023-07-13T15:01:45;7.60;;;5.50;;
9720;SDS011;4899;42.644;23.366;2023-07-13T15:04:11;6.47;;;5.38;;
9720;SDS011;4899;42.644;23.366;2023-07-13T15:09:20;8.73;;;4.97;;
9720;SDS011;4899;42.644;23.366;2023-07-13T15:11:45;10.30;;;5.75;;
9720;SDS011;4899;42.644;23.366;2023-07-13T15:14:10;11.02;;;5.90;;
9720;SDS011;4899;42.644;23.366;2023-07-13T15:16:36;10.30;;;6.00;;
9720;SDS011;4899;42.644;23.366;2023-07-13T15:19:01;8.00;;;4.30;;
9720;SDS011;4899;42.644;23.366;2023-07-13T15:21:27;8.20;;;5.55;;
9720;SDS011;4899;42.644;23.366;2023-07-13T15:23:59;8.15;;;5.57;;
9720;SDS011;4899;42.644;23.366;2023-07-13T15:26:25;8.07;;;5.47;;
9720;SDS011;4899;42.644;23.366;2023-07-13T15:28:50;9.57;;;5.22;;
9720;SDS011;4899;42.644;23.366;2023-07-13T15:31:25;10.57;;;5.50;;
9720;SDS011;4899;42.644;23.366;2023-07-13T15:33:52;8.23;;;5.80;;
9720;SDS011;4899;42.644;23.366;2023-07-13T15:36:18;7.47;;;5.55;;
9720;SDS011;4899;42.644;23.366;2023-07-13T15:38:44;6.60;;;5.63;;